Texas 商标

Prosper, TX 独户式别墅出售

504 全部出售房产 * 点击表头进行排选
发布日期 房产类型 风格 地址 价格 居住环境 地皮面积 价格/平方英尺.
2018-11-15 独户式别墅 1409 Coleto Creek Trail Prosper, TX 75078 $359,000 2,695 平方英尺. 5,663 平方英尺. $133
2018-11-15 独户式别墅 Traditional 3921 Dewberry Lane Prosper, TX 75078 $672,216 3,661 平方英尺. 10,890 平方英尺. $184
2018-11-15 独户式别墅 Traditional 4430 Cotton Belt Lane Prosper, TX 75078 $839,497 4,469 平方英尺. 13,068 平方英尺. $188
2018-11-15 独户式别墅 Contemporary/Modern 281 Wilson Drive Prosper, TX 75078 $439,900 3,314 平方英尺. 12,197 平方英尺. $133
2018-11-15 独户式别墅 Traditional 4441 Mill Branch Drive Prosper, TX 75078 $848,780 4,467 平方英尺. 12,197 平方英尺. $190
2018-11-14 独户式别墅 Traditional 780 Texana Drive Prosper, TX 75078 $474,900 4,277 平方英尺. 10,019 平方英尺. $111
2018-11-14 独户式别墅 Traditional 1600 Post Oak Court Prosper, TX 75078 $749,900 4,002 平方英尺. 44,431 平方英尺. $187
2018-11-13 独户式别墅 Traditional 531 Devonshire Drive Prosper, TX 75078 $410,000 3,220 平方英尺. 10,890 平方英尺. $127
2018-11-12 独户式别墅 Traditional 1931 Harvard Avenue Prosper, TX 75078 $725,000 4,251 平方英尺. 10,890 平方英尺. $171
2018-11-12 独户式别墅 Traditional 791 Dover Drive Prosper, TX 75078 $501,020 3,870 平方英尺. 6,970 平方英尺. $129
2018-11-12 独户式别墅 Traditional 2730 Old Shire Path Road Prosper, TX 75078 $467,970 3,053 平方英尺. 6,970 平方英尺. $153
2018-11-12 独户式别墅 Traditional 3920 Pine Leaf Lane Prosper, TX 75078 $592,528 3,568 平方英尺. 6,534 平方英尺. $166
2018-11-12 独户式别墅 Traditional 16016 Greenbelt Park Lane Prosper, TX 75078 $428,230 2,963 平方英尺. 10,890 平方英尺. $145
2018-11-11 独户式别墅 Traditional 15504 Governors Island Way Prosper, TX 75078 $345,000 2,240 平方英尺. 6,098 平方英尺. $154
2018-11-11 独户式别墅 Traditional 1500 Cedar Hollow Drive Prosper, TX 75078 $427,000 3,266 平方英尺. 13,939 平方英尺. $131
2018-11-09 独户式别墅 Traditional 1670 Havenbrook Prosper, TX 75078 $409,000 2,849 平方英尺. 10,454 平方英尺. $144
2018-11-09 独户式别墅 Traditional 16525 Toledo Bend Court Prosper, TX 75078 $364,000 2,885 平方英尺. 6,534 平方英尺. $126
2018-11-09 独户式别墅 Traditional 4561 Desert Willow Drive Prosper, TX 75078 $589,900 4,047 平方英尺. 10,454 平方英尺. $146
2018-11-09 独户式别墅 Traditional 141 Lamond Court Prosper, TX 75078 $465,990 3,619 平方英尺. $129
2018-11-09 独户式别墅 Traditional 5680 Colchester Drive Prosper, TX 75078 $320,000 2,996 平方英尺. 6,098 平方英尺. $107
2018-11-08 独户式别墅 621 Elizabeth Lane Prosper, TX 75078 $549,900 3,188 平方英尺. 14,810 平方英尺. $172
2018-11-08 独户式别墅 Traditional 540 Esperanza Drive Prosper, TX 75078 $669,990 4,492 平方英尺. $149
2018-11-08 独户式别墅 Traditional 530 Esperanza Drive Prosper, TX 75078 $674,990 4,703 平方英尺. $144
2018-11-08 独户式别墅 Traditional 541 Esperanza Drive Prosper, TX 75078 $599,990 3,493 平方英尺. $172
2018-11-07 独户式别墅 Traditional 1800 Princeton Prosper, TX 75078 $636,743 3,780 平方英尺. 10,890 平方英尺. $168
2018-11-07 独户式别墅 Traditional 4310 Porosa Lane Prosper, TX 75078 $725,900 3,273 平方英尺. $222
2018-11-07 独户式别墅 Traditional 411 Oxford Place Prosper, TX 75078 $435,000 3,247 平方英尺. 10,454 平方英尺. $134
2018-11-07 独户式别墅 Traditional 1130 Somerset Way Prosper, TX 75078 $400,000 2,714 平方英尺. 9,583 平方英尺. $147
2018-11-06 独户式别墅 931 Sagebrush Drive Prosper, TX 75078 $550,000 4,160 平方英尺. 10,019 平方英尺. $132
2018-11-06 独户式别墅 Traditional 4130 Porosa Lane Prosper, TX 75078 $668,900 3,987 平方英尺. $168
2018-11-05 独户式别墅 Traditional 2100 Nocona Drive Prosper, TX 75078 $479,900 4,174 平方英尺. 11,761 平方英尺. $115
2018-11-04 独户式别墅 Traditional 811 Orchard Drive Prosper, TX 75078 $544,500 3,834 平方英尺. 7,841 平方英尺. $142
2018-11-03 独户式别墅 Traditional 3100 Renmuir Drive Prosper, TX 75078 $536,900 4,013 平方英尺. 7,841 平方英尺. $134
2018-11-03 独户式别墅 Traditional 3100 Kennington Drive Prosper, TX 75078 $536,500 3,539 平方英尺. 7,841 平方英尺. $152
2018-11-03 独户式别墅 Traditional 2016 Hubbard Park Lane Prosper, TX 75078 $380,000 2,643 平方英尺. $144
2018-11-03 独户式别墅 Traditional 810 Grove Vale Drive Prosper, TX 75078 $446,500 2,621 平方英尺. 7,841 平方英尺. $170
2018-11-03 独户式别墅 Traditional 3120 Westminster Drive Prosper, TX 75078 $527,900 4,013 平方英尺. 7,841 平方英尺. $132
2018-11-03 独户式别墅 Traditional 3060 Westminster Drive Prosper, TX 75078 $511,500 3,803 平方英尺. 7,841 平方英尺. $134
2018-11-03 独户式别墅 Traditional 771 Elm Park Drive Prosper, TX 75078 $428,900 2,384 平方英尺. 7,841 平方英尺. $180
2018-11-03 独户式别墅 Traditional 3110 Kennington Drive Prosper, TX 75078 $455,900 2,621 平方英尺. 7,841 平方英尺. $174
2018-11-02 独户式别墅 3041 Clearwater Drive Prosper, TX 75078 $428,900 2,378 平方英尺. 7,841 平方英尺. $180
2018-11-02 独户式别墅 Traditional 741 Elm Park Drive Prosper, TX 75078 $446,500 2,621 平方英尺. 7,841 平方英尺. $170
2018-11-02 独户式别墅 Traditional 801 Orchard Drive Prosper, TX 75078 $499,900 3,373 平方英尺. 7,841 平方英尺. $148
2018-11-02 独户式别墅 1341 Brittany Way Prosper, TX 75078 $435,000 3,576 平方英尺. 13,068 平方英尺. $122
2018-11-02 独户式别墅 Traditional 831 Elm Park Drive Prosper, TX 75078 $415,000 2,627 平方英尺. 7,841 平方英尺. $158
2018-11-02 独户式别墅 Traditional 2160 Lavaca Prosper, TX 75078 $459,000 3,794 平方英尺. 10,019 平方英尺. $121
2018-11-01 独户式别墅 Traditional 5601 Lincolnwood Drive Prosper, TX 75078 $299,900 2,547 平方英尺. 9,583 平方英尺. $118
2018-11-01 独户式别墅 Traditional 2670 Meadowbrook Boulevard Prosper, TX 75078 $574,900 3,278 平方英尺. $175
2018-11-01 独户式别墅 Traditional 641 Sunbury Lane Prosper, TX 75078 $599,000 4,596 平方英尺. 15,246 平方英尺. $130
2018-11-01 独户式别墅 Traditional 4131 Dewberry Lane Prosper, TX 75078 $535,000 3,445 平方英尺. 6,534 平方英尺. $155
2018-11-01 独户式别墅 Traditional 1351 Crooked Stick Drive Prosper, TX 75078 $859,998 4,225 平方英尺. 34,412 平方英尺. $204
2018-11-01 独户式别墅 Traditional 2701 Vista View Lane Prosper, TX 75078 $699,999 3,838 平方英尺. 72,310 平方英尺. $182
2018-11-01 独户式别墅 Traditional 641 Lost Creek Drive Prosper, TX 75078 $449,800 4,256 平方英尺. 10,019 平方英尺. $106
2018-10-31 独户式别墅 360 Venture Point Drive Prosper, TX 75078 $815,000 4,675 平方英尺. 26,136 平方英尺. $174
2018-10-31 独户式别墅 Split Level; Traditional 15517 Governors Island Way Prosper, TX 75078 $399,900 3,180 平方英尺. 6,098 平方英尺. $126
2018-10-31 独户式别墅 Traditional 1181 Circle J Trail Prosper, TX 75078 $499,900 3,801 平方英尺. 12,632 平方英尺. $132
2018-10-31 独户式别墅 Traditional 9100 Saddle Horn Court Prosper, TX 75078 $638,000 4,433 平方英尺. 43,996 平方英尺. $144
2018-10-31 独户式别墅 Traditional 900 Fox Ridge Trail Prosper, TX 75078 $450,000 2,860 平方英尺. 9,148 平方英尺. $157
2018-10-31 独户式别墅 Traditional 960 Westmoreland Drive Prosper, TX 75078 $289,900 2,258 平方英尺. 6,970 平方英尺. $128
2018-10-30 独户式别墅 Traditional 1201 Clipston Drive Prosper, TX 75078 $600,000 5,142 平方英尺. 12,632 平方英尺. $117
2018-10-29 独户式别墅 Traditional 2730 Langley Way Prosper, TX 75078 $599,900 4,200 平方英尺. $143
2018-10-29 独户式别墅 Traditional 1711 Lexington Avenue Prosper, TX 75078 $785,000 4,265 平方英尺. 10,890 平方英尺. $184
2018-10-29 独户式别墅 1251 Waterton Drive Prosper, TX 75078 $569,990 4,230 平方英尺. 14,375 平方英尺. $135
2018-10-28 独户式别墅 171 Chapel Hill Drive Prosper, TX 75078 $575,000 4,804 平方英尺. 9,583 平方英尺. $120
2018-10-28 独户式别墅 Traditional 5375 Pebble Creek Drive Prosper, TX 75078 $1,150,000 4,416 平方英尺. 118,048 平方英尺. $260
2018-10-28 独户式别墅 Traditional 2300 Sutton Park Avenue Prosper, TX 75078 $467,721 3,065 平方英尺. $153
2018-10-27 独户式别墅 Tudor 2240 Longmont Lane Prosper, TX 75078 $699,000 4,314 平方英尺. 11,326 平方英尺. $162
2018-10-27 独户式别墅 Traditional 890 Willowgate Prosper, TX 75078 $485,000 4,127 平方英尺. 10,890 平方英尺. $118
2018-10-26 独户式别墅 1621 Pebblebrook Lane Prosper, TX 75078 $551,648 3,528 平方英尺. 6,970 平方英尺. $156
2018-10-26 独户式别墅 Traditional 3431 Beechwood Drive Prosper, TX 75078 $669,990 4,101 平方英尺. $163
2018-10-26 独户式别墅 Traditional 590 Willow Ridge Circle Prosper, TX 75078 $535,000 4,253 平方英尺. 16,117 平方英尺. $126
2018-10-26 独户式别墅 Traditional 4040 Chama Street Prosper, TX 75078 $770,000 4,846 平方英尺. 20,473 平方英尺. $159
2018-10-26 独户式别墅 Traditional 2160 Willow Bend Drive Prosper, TX 75078 $925,000 4,524 平方英尺. 34,412 平方英尺. $204
2018-10-26 独户式别墅 4281 Bellingrath Drive Prosper, TX 75078 $615,000 4,252 平方英尺. 10,454 平方英尺. $145
2018-10-26 独户式别墅 Traditional 602 Broadway Street Prosper, TX 75078 $375,000 1,362 平方英尺. 16,988 平方英尺. $275
2018-10-25 独户式别墅 Traditional 5C Rhea Mills Circle Prosper, TX 75078 $465,000 2,719 平方英尺. 45,738 平方英尺. $171
2018-10-25 独户式别墅 Traditional 4311 Fisher Road Prosper, TX 75078 $549,000 4,093 平方英尺. 10,019 平方英尺. $134
2018-10-25 独户式别墅 Traditional 4420 Canadian River Drive Prosper, TX 75078 $410,590 3,320 平方英尺. 7,405 平方英尺. $124
2018-10-24 独户式别墅 Traditional 1040 Canterbury Drive Prosper, TX 75078 $309,990 2,952 平方英尺. 6,970 平方英尺. $105
2018-10-24 独户式别墅 Traditional 2017 Long Park Drive Prosper, TX 75078 $361,345 2,087 平方英尺. 6,098 平方英尺. $173
2018-10-24 独户式别墅 Traditional 2024 Overton Park Drive Prosper, TX 75078 $441,810 3,775 平方英尺. 6,098 平方英尺. $117
2018-10-24 独户式别墅 Traditional 580 Evening Sun Drive Prosper, TX 75078 $525,000 4,266 平方英尺. 10,019 平方英尺. $123
2018-10-24 独户式别墅 1680 Cascades Court Prosper, TX 75078 $547,990 4,035 平方英尺. 17,424 平方英尺. $136
2018-10-23 独户式别墅 Traditional 2950 Renmuir Drive Prosper, TX 75078 $465,000 3,450 平方英尺. $135
2018-10-23 独户式别墅 Traditional 3061 Kennington Drive Prosper, TX 75078 $487,970 3,448 平方英尺. $142
2018-10-22 独户式别墅 Traditional 720 Moorland Pass Drive Prosper, TX 75078 $472,963 2,815 平方英尺. 6,970 平方英尺. $168
2018-10-19 独户式别墅 Traditional 740 Salada Drive Prosper, TX 75078 $529,900 4,439 平方英尺. 11,326 平方英尺. $119
2018-10-19 独户式别墅 Traditional 17B Grindstone Drive Prosper, TX 75078 $497,400 2,487 平方英尺. 44,867 平方英尺. $200
2018-10-19 独户式别墅 Traditional 2540 Westview Court Prosper, TX 75078 $1,790,000 6,807 平方英尺. 147,233 平方英尺. $263
2018-10-19 独户式别墅 Traditional 2930 Renmuir Drive Prosper, TX 75078 $499,000 4,080 平方英尺. $122
2018-10-19 独户式别墅 790 Ashbury Lane Prosper, TX 75078 $464,183 2,321 平方英尺. 7,405 平方英尺. $200
2018-10-19 独户式别墅 Traditional 3141 Kennington Drive Prosper, TX 75078 $399,000 2,235 平方英尺. $179
2018-10-19 独户式别墅 Traditional 880 Sabine Drive Prosper, TX 75078 $475,000 3,500 平方英尺. 9,148 平方英尺. $136
2018-10-18 独户式别墅 Traditional 4140 Porosa Lane Prosper, TX 75078 $649,900 3,888 平方英尺. $167
2018-10-18 独户式别墅 Traditional 700 Cherrywood Drive Prosper, TX 75078 $989,900 5,331 平方英尺. 17,424 平方英尺. $186
2018-10-18 独户式别墅 Traditional 4950 Dolorosa Lane Prosper, TX 75078 $455,000 2,632 平方英尺. 8,276 平方英尺. $173
2018-10-17 独户式别墅 Traditional 4871 Verbena Way Prosper, TX 75078 $450,000 2,574 平方英尺. 8,712 平方英尺. $175
2018-10-17 独户式别墅 Traditional 3890 Marigold Lane Prosper, TX 75078 $435,888 2,640 平方英尺. 10,890 平方英尺. $165
2018-10-17 独户式别墅 Traditional 1021 Three Rivers Drive Prosper, TX 75078 $599,900 4,740 平方英尺. 20,909 平方英尺. $127
2018-10-15 独户式别墅 Traditional 331 Timber Ridge Road Prosper, TX 75078 $419,990 2,627 平方英尺. $160
2018-10-15 独户式别墅 Traditional 400 Fox Crossing Lane Prosper, TX 75078 $439,990 3,679 平方英尺. $120
2018-10-15 独户式别墅 Traditional 410 Timber Ridge Road Prosper, TX 75078 $415,990 3,041 平方英尺. $137
2018-10-15 独户式别墅 Traditional 240 Darian Drive Prosper, TX 75078 $484,990 3,961 平方英尺. $122
2018-10-14 独户式别墅 800 Ashbury Lane Prosper, TX 75078 $514,845 2,838 平方英尺. 6,970 平方英尺. $181
2018-10-13 独户式别墅 Traditional 1610 Thackery Lane Prosper, TX 75078 $648,632 4,743 平方英尺. 14,375 平方英尺. $137
2018-10-12 独户式别墅 Traditional 121 Lamond Court Prosper, TX 75078 $539,990 3,719 平方英尺. $145
2018-10-12 独户式别墅 Traditional 3450 Briarcliff Drive Prosper, TX 75078 $609,900 3,403 平方英尺. 11,761 平方英尺. $179
2018-10-12 独户式别墅 711 Willowview Drive Prosper, TX 75078 $565,000 4,347 平方英尺. 15,682 平方英尺. $130
2018-10-12 独户式别墅 1440 Crescent Valley Drive Prosper, TX 75078 $400,000 3,254 平方英尺. 10,019 平方英尺. $123
2018-10-11 独户式别墅 1325 Nacona Drive Prosper, TX 75078 $299,000 2,578 平方英尺. 10,890 平方英尺. $116
2018-10-11 独户式别墅 Ranch 1191 Pasewark Circle Prosper, TX 75078 $511,000 2,916 平方英尺. 87,120 平方英尺. $175
2018-10-11 独户式别墅 Traditional 1801 Brownwood Boulevard Prosper, TX 75078 $249,900 1,442 平方英尺. 4,792 平方英尺. $173
2018-10-11 独户式别墅 Traditional 2008 Long Park Avenue Prosper, TX 75078 $425,000 3,264 平方英尺. 7,841 平方英尺. $130
2018-10-11 独户式别墅 Traditional 1190 Golden Sunset Court Prosper, TX 75078 $389,900 2,666 平方英尺. 11,761 平方英尺. $146
2018-10-10 独户式别墅 Traditional 2211 Arbol Way Prosper, TX 75078 $550,000 4,718 平方英尺. 10,890 平方英尺. $117
2018-10-10 独户式别墅 Ranch; Traditional 2209 Bradford Drive Prosper, TX 75078 $389,000 2,379 平方英尺. 60,113 平方英尺. $164
2018-10-09 独户式别墅 Traditional 1141 Amistad Drive Prosper, TX 75078 $375,000 3,117 平方英尺. 11,761 平方英尺. $120
2018-10-08 独户式别墅 Craftsman; Traditional 761 Livingston Drive Prosper, TX 75078 $457,900 3,705 平方英尺. 11,326 平方英尺. $124
2018-10-08 独户式别墅 Traditional 4570 Acacia Parkway Prosper, TX 75078 $636,500 4,650 平方英尺. 10,890 平方英尺. $137
2018-10-08 独户式别墅 Traditional 840 Summerfield Drive Prosper, TX 75078 $585,900 4,162 平方英尺. 9,583 平方英尺. $141
2018-10-07 独户式别墅 Traditional 16320 Benbrook Boulevard Prosper, TX 75078 $400,000 2,857 平方英尺. $140
2018-10-06 独户式别墅 Traditional 1530 Sweetwater Lane Prosper, TX 75078 $732,897 5,027 平方英尺. 14,375 平方英尺. $146
2018-10-06 独户式别墅 Traditional 1100 Broken Bend Drive Prosper, TX 75078 $599,000 4,567 平方英尺. 11,326 平方英尺. $131
2018-10-05 独户式别墅 840 Camden Way Prosper, TX 75078 $500,000 4,318 平方英尺. 13,068 平方英尺. $116
2018-10-05 独户式别墅 Traditional 4250 Whitley Place Drive Prosper, TX 75078 $549,000 3,755 平方英尺. 10,019 平方英尺. $146
2018-10-05 独户式别墅 Traditional 800 Texana Drive Prosper, TX 75078 $429,900 3,797 平方英尺. 10,454 平方英尺. $113
2018-10-05 独户式别墅 1621 Wichita Drive Prosper, TX 75078 $588,738 4,072 平方英尺. 14,375 平方英尺. $145
2018-10-05 独户式别墅 1721 Lonesome Dove Drive Prosper, TX 75078 $593,128 4,033 平方英尺. 14,375 平方英尺. $147
2018-10-05 独户式别墅 1551 Winchester Drive Prosper, TX 75078 $563,566 4,067 平方英尺. 14,375 平方英尺. $139
2018-10-05 独户式别墅 1510 Chisholm Trail Prosper, TX 75078 $570,817 4,305 平方英尺. 14,375 平方英尺. $133
2018-10-05 独户式别墅 1731 Lonesome Dove Trail Prosper, TX 75078 $610,259 4,624 平方英尺. 14,375 平方英尺. $132
2018-10-05 独户式别墅 1731 Wichita Drive Prosper, TX 75078 $592,904 4,624 平方英尺. 14,375 平方英尺. $128
2018-10-05 独户式别墅 4350 Woodbine Lane Prosper, TX 75078 $799,990 4,935 平方英尺. 12,197 平方英尺. $162
2018-10-05 独户式别墅 Traditional 3720 Arborglen Court Prosper, TX 75078 $730,000 4,279 平方英尺. 13,068 平方英尺. $171
2018-10-04 独户式别墅 Traditional 4210 Blue Sage Drive Prosper, TX 75078 $574,000 3,266 平方英尺. 11,326 平方英尺. $176
2018-10-04 独户式别墅 Traditional 5470 Crestwood Drive Prosper, TX 75078 $270,000 2,729 平方英尺. 7,405 平方英尺. $99
2018-10-04 独户式别墅 Traditional 961 Tumbleweed Drive Prosper, TX 75078 $449,000 3,576 平方英尺. 9,148 平方英尺. $126
2018-10-01 独户式别墅 200 Andover Lane Prosper, TX 75078 $457,473 3,894 平方英尺. 10,890 平方英尺. $117
2018-10-01 独户式别墅 Traditional 1641 Pebblebrook Lane Prosper, TX 75078 $511,910 3,295 平方英尺. 6,970 平方英尺. $155
2018-09-30 独户式别墅 Traditional 1120 Circle J Trail Prosper, TX 75078 $479,000 3,832 平方英尺. 11,326 平方英尺. $125
2018-09-28 独户式别墅 Traditional 911 Hawthorn Drive Prosper, TX 75078 $545,000 3,826 平方英尺. 13,939 平方英尺. $142
2018-09-28 独户式别墅 Traditional 625 Creek View Drive Prosper, TX 75078 $439,000 3,179 平方英尺. 21,344 平方英尺. $138
2018-09-28 独户式别墅 16421 Amistad Avenue Prosper, TX 75078 $375,000 2,704 平方英尺. 5,663 平方英尺. $139
2018-09-28 独户式别墅 Traditional 701 Buffalo Springs Drive Prosper, TX 75078 $589,900 4,552 平方英尺. 12,632 平方英尺. $130
2018-09-27 独户式别墅 Traditional 1633 Tahoe Trail Prosper, TX 75078 $330,000 2,304 平方英尺. 5,663 平方英尺. $143
2018-09-27 独户式别墅 Traditional 2461 Spring Crest Drive Prosper, TX 75078 $899,900 6,195 平方英尺. 16,117 平方英尺. $145
2018-09-26 独户式别墅 Traditional 1410 Rainier Drive Prosper, TX 75078 $800,000 3,500 平方英尺. 41,382 平方英尺. $229
2018-09-25 独户式别墅 1091 Barrington Drive Prosper, TX 75078 $275,000 2,445 平方英尺. 8,712 平方英尺. $112
2018-09-25 独户式别墅 Traditional 4240 San Juan Avenue Prosper, TX 75078 $1,200,000 5,015 平方英尺. 43,996 平方英尺. $239
2018-09-23 独户式别墅 Mediterranean 2110 Arbol Way Prosper, TX 75078 $454,999 2,916 平方英尺. 10,890 平方英尺. $156
2018-09-22 独户式别墅 1101 Barrington Drive Prosper, TX 75078 $242,000 1,554 平方英尺. 8,712 平方英尺. $156
2018-09-22 独户式别墅 601 Logans Way Drive Prosper, TX 75078 $399,900 2,881 平方英尺. 12,632 平方英尺. $139
2018-09-22 独户式别墅 Traditional 2890 Creekwood Lane Prosper, TX 75078 $680,000 4,129 平方英尺. 11,326 平方英尺. $165
2018-09-22 独户式别墅 Traditional 4881 Perennial Way Prosper, TX 75078 $499,900 3,601 平方英尺. 8,712 平方英尺. $139
2018-09-21 独户式别墅 1090 Kent Drive Prosper, TX 75078 $301,000 2,932 平方英尺. 9,583 平方英尺. $103
2018-09-21 独户式别墅 Traditional 760 Kesswick Pass Drive Prosper, TX 75078 $599,900 3,796 平方英尺. $158
2018-09-21 独户式别墅 Traditional 750 Livingston Drive Prosper, TX 75078 $509,900 4,405 平方英尺. 12,197 平方英尺. $116
2018-09-20 独户式别墅 Traditional 2101 Nocona Drive Prosper, TX 75078 $489,000 4,269 平方英尺. 12,197 平方英尺. $115
2018-09-20 独户式别墅 351 Oxford Place Prosper, TX 75078 $392,000 2,818 平方英尺. 10,019 平方英尺. $139
2018-09-20 独户式别墅 Traditional 851 Buffalo Springs Drive Prosper, TX 75078 $370,000 2,993 平方英尺. 12,632 平方英尺. $124
2018-09-20 独户式别墅 Traditional 950 High Willow Drive Prosper, TX 75078 $414,900 3,661 平方英尺. 11,326 平方英尺. $113
2018-09-20 独户式别墅 Traditional 3520 Spicewood Drive Prosper, TX 75078 $638,500 3,475 平方英尺. 11,326 平方英尺. $184
2018-09-19 独户式别墅 Traditional 4051 Pepper Grass Lane Prosper, TX 75078 $450,000 2,234 平方英尺. 7,841 平方英尺. $201
2018-09-19 独户式别墅 Traditional 2710 Kingston Street Prosper, TX 75078 $574,900 3,587 平方英尺. $160
2018-09-19 独户式别墅 1120 English Ivy Drive Prosper, TX 75078 $305,000 2,986 平方英尺. 8,276 平方英尺. $102
2018-09-19 独户式别墅 Traditional 5660 Coventry Drive Prosper, TX 75078 $319,000 3,003 平方英尺. 6,098 平方英尺. $106
2018-09-18 独户式别墅 Traditional 2710 Langley Way Prosper, TX 75078 $549,900 3,003 平方英尺. $183
2018-09-18 独户式别墅 104 7th Street Prosper, TX 75078 $800,000 5,000 平方英尺. 28,750 平方英尺. $160
2018-09-17 独户式别墅 Traditional 1640 Trellis Drive Prosper, TX 75078 $499,999 3,504 平方英尺. 6,970 平方英尺. $143
2018-09-17 独户式别墅 Traditional 1631 Oakcrest Drive Prosper, TX 75078 $540,822 2,976 平方英尺. 9,583 平方英尺. $182
2018-09-15 独户式别墅 Traditional 2212 Sutton Park Avenue Prosper, TX 75078 $475,000 2,930 平方英尺. $162
2018-09-14 独户式别墅 Traditional 16200 Cullen Park Way Prosper, TX 75078 $475,000 3,749 平方英尺. $127
2018-09-14 独户式别墅 Traditional 3070 Kennington Drive Prosper, TX 75078 $484,777 2,224 平方英尺. $218
2018-09-13 独户式别墅 Traditional 900 Saint Peter Lane Prosper, TX 75078 $499,900 2,861 平方英尺. 14,375 平方英尺. $175
2018-09-13 独户式别墅 Traditional 4280 Mesa Drive Prosper, TX 75078 $515,000 3,816 平方英尺. 10,019 平方英尺. $135
2018-09-12 独户式别墅 Traditional 4531 Bristleleaf Lane Prosper, TX 75078 $584,900 4,252 平方英尺. 10,454 平方英尺. $138
2018-09-12 独户式别墅 Traditional 861 Rustic Lane Prosper, TX 75078 $450,000 4,130 平方英尺. 10,019 平方英尺. $109
2018-09-12 独户式别墅 Traditional 1020 Deer Run Lane Prosper, TX 75078 $675,000 4,451 平方英尺. 15,246 平方英尺. $152
2018-09-12 独户式别墅 Traditional 1041 Double B Trail Prosper, TX 75078 $680,000 4,595 平方英尺. 14,810 平方英尺. $148
2018-09-12 独户式别墅 Traditional 15821 Gladewater Terrace Prosper, TX 75078 $309,000 1,891 平方英尺. 5,663 平方英尺. $163
2018-09-12 独户式别墅 Traditional 1441 Brookhill Lane Prosper, TX 75078 $499,500 4,037 平方英尺. 10,019 平方英尺. $124
2018-09-11 独户式别墅 Traditional 1337 Palestine Drive Prosper, TX 75078 $349,900 2,342 平方英尺. 7,841 平方英尺. $149
2018-09-11 独户式别墅 741 Shadow Hill Drive Prosper, TX 75078 $624,900 4,749 平方英尺. 12,197 平方英尺. $132
2018-09-10 独户式别墅 Traditional 2031 Longmont Lane Prosper, TX 75078 $676,010 3,994 平方英尺. 13,068 平方英尺. $169
2018-09-08 独户式别墅 Traditional 1345 Palestine Drive Prosper, TX 75078 $319,900 2,143 平方英尺. 8,712 平方英尺. $149
2018-09-07 独户式别墅 Traditional 1290 Crooked Stick Drive Prosper, TX 75078 $819,900 4,178 平方英尺. 23,958 平方英尺. $196
2018-09-07 独户式别墅 Traditional 981 Lancashire Lane Prosper, TX 75078 $295,000 2,947 平方英尺. 6,098 平方英尺. $100
2018-09-07 独户式别墅 421 Esperanza Drive Prosper, TX 75078 $725,000 4,081 平方英尺. 10,019 平方英尺. $178
2018-09-07 独户式别墅 Traditional 16424 Amistad Avenue Prosper, TX 75078 $329,987 2,178 平方英尺. 6,098 平方英尺. $152
2018-09-06 独户式别墅 Traditional 3890 White Clover Lane Prosper, TX 75078 $500,000 2,604 平方英尺. 7,841 平方英尺. $192
2018-09-06 独户式别墅 Traditional 230 Timber Ridge Road Prosper, TX 75078 $414,990 3,094 平方英尺. 11,326 平方英尺. $134
2018-09-06 独户式别墅 French 4161 Glacier Point Court Prosper, TX 75078 $1,699,900 6,741 平方英尺. 23,087 平方英尺. $252
2018-09-05 独户式别墅 Traditional 751 Angelina Lane Prosper, TX 75078 $625,000 4,320 平方英尺. 10,890 平方英尺. $145
2018-09-05 独户式别墅 Traditional 3040 Creekwood Lane Prosper, TX 75078 $575,000 3,177 平方英尺. 13,068 平方英尺. $181
2018-09-05 独户式别墅 Traditional 1600 Lonesome Dove Drive Prosper, TX 75078 $524,900 4,073 平方英尺. 12,632 平方英尺. $129
2018-09-04 独户式别墅 Traditional 1020 Caribou Drive Prosper, TX 75078 $697,500 4,413 平方英尺. 16,988 平方英尺. $158
2018-09-02 独户式别墅 Traditional 240 Lake Trail Lane Prosper, TX 75078 $479,990 3,849 平方英尺. 10,019 平方英尺. $125
2018-09-02 独户式别墅 Traditional 1431 Brookhill Lane Prosper, TX 75078 $459,990 3,078 平方英尺. 10,019 平方英尺. $149
2018-09-01 独户式别墅 Traditional 10B Rhea Mills Circle Prosper, TX 75078 $449,500 1,850 平方英尺. 51,836 平方英尺. $243
2018-09-01 独户式别墅 901 Jessica Lane Prosper, TX 75078 $650,000 4,356 平方英尺. 19,602 平方英尺. $149
2018-08-31 独户式别墅 181 Andover Lane Prosper, TX 75078 $442,422 3,475 平方英尺. 10,890 平方英尺. $127
2018-08-31 独户式别墅 Traditional 1721 Medina Lane Prosper, TX 75078 $292,000 2,185 平方英尺. 5,663 平方英尺. $134
2018-08-31 独户式别墅 French; Traditional 1761 Lonesome Dove Drive Prosper, TX 75078 $586,052 4,565 平方英尺. 12,632 平方英尺. $128
2018-08-31 独户式别墅 Traditional 331 Fawn Mist Drive Prosper, TX 75078 $458,641 2,749 平方英尺. 10,019 平方英尺. $167
2018-08-31 独户式别墅 Traditional 4070 Feathergrass Lane Prosper, TX 75078 $550,000 3,514 平方英尺. 7,841 平方英尺. $157
2018-08-31 独户式别墅 Traditional 1651 Quail Creek Lane Prosper, TX 75078 $579,900 4,328 平方英尺. 10,890 平方英尺. $134
2018-08-31 独户式别墅 Traditional 1681 Birdsong Lane Prosper, TX 75078 $585,000 4,400 平方英尺. 10,890 平方英尺. $133
2018-08-30 独户式别墅 1801 Winchester Drive Prosper, TX 75078 $532,955 3,589 平方英尺. 14,375 平方英尺. $148
2018-08-30 独户式别墅 Traditional 1440 Bainbridge Lane Prosper, TX 75078 $424,000 2,604 平方英尺. 11,326 平方英尺. $163
2018-08-29 独户式别墅 Traditional 1720 Pebblebrook Lane Prosper, TX 75078 $450,780 2,211 平方英尺. 9,583 平方英尺. $204
2018-08-29 独户式别墅 Traditional 1730 Fair Oaks Lane Prosper, TX 75078 $759,900 3,982 平方英尺. 46,174 平方英尺. $191
2018-08-27 独户式别墅 3390 Briarcliff Drive Prosper, TX 75078 $675,000 3,987 平方英尺. 10,890 平方英尺. $169
2018-08-27 独户式别墅 Traditional 1471 Soaring Star Drive Prosper, TX 75078 $359,990 1,911 平方英尺. 10,019 平方英尺. $188
2018-08-27 独户式别墅 160 Andover Lane Prosper, TX 75078 $441,811 3,399 平方英尺. 10,890 平方英尺. $130
2018-08-26 独户式别墅 Traditional 4510 Acacia Parkway Prosper, TX 75078 $639,900 4,492 平方英尺. 10,454 平方英尺. $142
2018-08-25 独户式别墅 Traditional 710 Camden Way Prosper, TX 75078 $519,900 3,977 平方英尺. 14,375 平方英尺. $131
2018-08-24 独户式别墅 Traditional 3860 Pepper Grass Lane Prosper, TX 75078 $735,990 4,449 平方英尺. $165
2018-08-23 独户式别墅 Traditional 601 Esperanza Drive Prosper, TX 75078 $825,990 4,900 平方英尺. $169
2018-08-23 独户式别墅 Traditional 2901 Vista View Lane Prosper, TX 75078 $1,014,000 5,375 平方英尺. 53,579 平方英尺. $189
2018-08-23 独户式别墅 Traditional 780 Clearlake Drive Prosper, TX 75078 $425,000 3,470 平方英尺. 14,810 平方英尺. $122
2018-08-22 独户式别墅 Tudor 4431 Cotton Belt Ln Prosper, TX 75078 $927,274 4,385 平方英尺. 13,068 平方英尺. $211
2018-08-22 独户式别墅 Traditional 4428 Rainwater Creek Way Prosper, TX 75078 $449,397 4,044 平方英尺. 10,890 平方英尺. $111
2018-08-22 独户式别墅 Traditional 2101 Sutton Park Avenue Prosper, TX 75078 $400,000 3,378 平方英尺. $118
2018-08-22 独户式别墅 Traditional 1111 Belknap Way Prosper, TX 75078 $417,591 2,274 平方英尺. 2,178 平方英尺. $184
2018-08-22 独户式别墅 1300 Waterton Drive Prosper, TX 75078 $577,990 4,235 平方英尺. 14,375 平方英尺. $136
2018-08-21 独户式别墅 Tudor 4421 Cotton Belt Lane Prosper, TX 75078 $865,985 4,013 平方英尺. 12,632 平方英尺. $216
2018-08-21 独户式别墅 Traditional 2213 Richmond Park Lane Prosper, TX 75078 $438,490 3,065 平方英尺. $143
2018-08-21 独户式别墅 Traditional 16209 Bidwell Park Drive Prosper, TX 75078 $375,000 2,321 平方英尺. $162
2018-08-21 独户式别墅 Traditional 4210 Peppervine Prosper, TX 75078 $534,936 3,027 平方英尺. 9,148 平方英尺. $177
2018-08-21 独户式别墅 Traditional 4230 Paddock Lane Prosper, TX 75078 $651,900 4,034 平方英尺. $162
2018-08-20 独户式别墅 Traditional 4300 Paddock Lane Prosper, TX 75078 $625,900 3,273 平方英尺. $191
2018-08-19 独户式别墅 1331 Waterton Drive Prosper, TX 75078 $677,990 4,967 平方英尺. 14,810 平方英尺. $136
2018-08-19 独户式别墅 1681 Cascades Court Prosper, TX 75078 $519,990 3,187 平方英尺. 14,810 平方英尺. $163
2018-08-18 独户式别墅 Traditional 221 Sandstone Drive Prosper, TX 75078 $349,999 3,052 平方英尺. 10,890 平方英尺. $115
2018-08-18 独户式别墅 Traditional 4361 Woodbine Lane Prosper, TX 75078 $899,999 5,453 平方英尺. 12,197 平方英尺. $165
2018-08-18 独户式别墅 2751 Langley Way Prosper, TX 75078 $546,545 3,750 平方英尺. 9,148 平方英尺. $146
2018-08-17 独户式别墅 Traditional 520 Komron Court Prosper, TX 75078 $355,000 2,456 平方英尺. 13,939 平方英尺. $145
2018-08-17 独户式别墅 Contemporary/Modern; Traditional 4130 Woodbine Lane Prosper, TX 75078 $647,631 4,178 平方英尺. $155
2018-08-17 独户式别墅 Traditional 4330 Mesa Drive Prosper, TX 75078 $549,900 3,381 平方英尺. 10,890 平方英尺. $163
2018-08-17 独户式别墅 Traditional 1220 Cedar Lake Drive Prosper, TX 75078 $385,000 2,818 平方英尺. 10,890 平方英尺. $137
2018-08-16 独户式别墅 Traditional 1250 Packsaddle Trail Prosper, TX 75078 $469,900 3,750 平方英尺. 10,890 平方英尺. $125
2018-08-16 独户式别墅 Traditional 3501 Briarcliff Drive Prosper, TX 75078 $629,990 3,528 平方英尺. $179
2018-08-15 独户式别墅 Traditional 400 Timber Ridge Road Prosper, TX 75078 $344,990 1,911 平方英尺. $181
2018-08-14 独户式别墅 Traditional 320 Darian Drive Prosper, TX 75078 $435,990 3,719 平方英尺. $117
2018-08-14 独户式别墅 Traditional 690 Texana Drive Prosper, TX 75078 $505,000 4,268 平方英尺. 10,454 平方英尺. $118
2018-08-14 独户式别墅 Ranch 3180 Frontier Parkway Prosper, TX 75078 $369,900 2,927 平方英尺. 50,965 平方英尺. $126
2018-08-14 独户式别墅 Prosper, TX $315,000 2,468 平方英尺. 5,663 平方英尺. $128
2018-08-13 独户式别墅 Traditional 2791 Kingston Street Prosper, TX 75078 $587,043 3,776 平方英尺. 9,148 平方英尺. $155
2018-08-13 独户式别墅 Traditional 991 Waterview Drive Prosper, TX 75078 $433,000 2,660 平方英尺. 10,454 平方英尺. $163
2018-08-13 独户式别墅 Traditional 821 Biltmore Lane Prosper, TX 75078 $589,990 3,041 平方英尺. 10,890 平方英尺. $194
2018-08-13 独户式别墅 Traditional 2131 Longmont Lane Prosper, TX 75078 $599,990 3,448 平方英尺. 10,019 平方英尺. $174
2018-08-13 独户式别墅 Traditional 1711 Princeton Prosper, TX 75078 $669,990 3,992 平方英尺. 10,890 平方英尺. $168
2018-08-10 独户式别墅 Traditional 921 Sabine Drive Prosper, TX 75078 $399,000 2,660 平方英尺. 12,632 平方英尺. $150
2018-08-10 独户式别墅 Traditional 911 Sabine Drive Prosper, TX 75078 $439,000 3,364 平方英尺. 12,632 平方英尺. $130
2018-08-10 独户式别墅 1920 Cattle Drive Prosper, TX 75078 $706,932 3,814 平方英尺. 24,829 平方英尺. $185
2018-08-10 独户式别墅 Traditional 621 Sunbury Lane Prosper, TX 75078 $574,900 3,401 平方英尺. 15,246 平方英尺. $169
2018-08-10 独户式别墅 Traditional 601 Sunbury Lane Prosper, TX 75078 $599,900 3,498 平方英尺. 15,246 平方英尺. $172
2018-08-10 独户式别墅 Traditional 2420 Breezypoint Circle Prosper, TX 75078 $590,000 3,705 平方英尺. 13,939 平方英尺. $159
2018-08-09 独户式别墅 Traditional 101 Lamond Court Prosper, TX 75078 $454,990 3,609 平方英尺. $126
2018-08-09 独户式别墅 Traditional 180 Lamond Court Prosper, TX 75078 $485,990 3,961 平方英尺. $123
2018-08-08 独户式别墅 Ranch 309 3rd Street Prosper, TX 75078 $199,000 1,765 平方英尺. 13,068 平方英尺. $113
2018-08-07 独户式别墅 Traditional 2481 Fair Oaks Lane Prosper, TX 75078 $849,000 4,717 平方英尺. 20,038 平方英尺. $180
2018-08-07 独户式别墅 Traditional 981 Caribou Drive Prosper, TX 75078 $599,900 4,503 平方英尺. 14,810 平方英尺. $133
2018-08-07 独户式别墅 950 Windrock Lane Prosper, TX 75078 $651,360 4,210 平方英尺. 9,148 平方英尺. $155
2018-08-07 独户式别墅 Traditional 1051 Brookfield Drive Prosper, TX 75078 $659,278 4,188 平方英尺. 8,712 平方英尺. $157
2018-08-06 独户式别墅 Traditional 1640 Star Creek Drive Prosper, TX 75078 $516,336 2,771 平方英尺. 6,970 平方英尺. $186
2018-08-06 独户式别墅 Traditional 410 Mcfarlin Drive Drive Prosper, TX 75078 $723,808 5,403 平方英尺. 14,375 平方英尺. $134
2018-08-05 独户式别墅 Traditional 630 Katelyn Avenue Prosper, TX 75078 $551,838 3,707 平方英尺. 6,534 平方英尺. $149
2018-08-05 独户式别墅 Traditional 4340 Autumn Sage Drive Prosper, TX 75078 $638,677 4,200 平方英尺. 10,890 平方英尺. $152
2018-08-05 独户式别墅 Traditional 4440 Acacia Boulevard Prosper, TX 75078 $679,150 3,548 平方英尺. 10,890 平方英尺. $191
2018-08-05 独户式别墅 Traditional 4301 Autumn Sage Drive Prosper, TX 75078 $559,061 3,026 平方英尺. 10,890 平方英尺. $185
2018-08-04 独户式别墅 Traditional 1809 Waterwood Drive Prosper, TX 75078 $259,000 1,569 平方英尺. 5,663 平方英尺. $165
2018-08-03 独户式别墅 Traditional 4011 Arches Lane Prosper, TX 75078 $1,125,000 5,378 平方英尺. 15,246 平方英尺. $209
2018-08-03 独户式别墅 Contemporary/Modern 6611 Preston Country Lane Prosper, TX 75078 $724,500 2,877 平方英尺. 237,402 平方英尺. $252
2018-08-03 独户式别墅 Traditional 1010 Caribou Drive Prosper, TX 75078 $594,900 4,370 平方英尺. 16,988 平方英尺. $136
2018-08-03 独户式别墅 Traditional 700 Ashbury Lane Prosper, TX 75078 $524,630 3,799 平方英尺. 7,841 平方英尺. $138
2018-08-03 独户式别墅 Traditional 600 Ashbury Lane Prosper, TX 75078 $476,262 3,018 平方英尺. 6,970 平方英尺. $158
2018-08-02 独户式别墅 Traditional 3400 Briarcliff Drive Prosper, TX 75078 $748,075 4,108 平方英尺. 10,890 平方英尺. $182
2018-08-02 独户式别墅 3500 Newport Drive Prosper, TX 75078 $700,000 4,321 平方英尺. 10,890 平方英尺. $162
2018-08-02 独户式别墅 3520 Newport Dirve Prosper, TX 75078 $560,000 3,398 平方英尺. 10,890 平方英尺. $165
2018-08-02 独户式别墅 Tudor 4371 Trinidad Court Prosper, TX 75078 $650,000 4,185 平方英尺. 10,890 平方英尺. $155
2018-07-31 独户式别墅 Traditional 1031 Brookfield Drive Prosper, TX 75078 $589,470 3,823 平方英尺. 8,712 平方英尺. $154
2018-07-30 独户式别墅 Traditional 701 Elizabeth Lane Prosper, TX 75078 $548,944 4,413 平方英尺. 10,890 平方英尺. $124
2018-07-30 独户式别墅 3731 Glacier Point Court Prosper, TX 75078 $852,183 4,560 平方英尺. 13,068 平方英尺. $187
2018-07-30 独户式别墅 Traditional 1820 Princeton Lane Prosper, TX 75078 $675,000 3,568 平方英尺. 11,761 平方英尺. $189
2018-07-28 独户式别墅 Traditional 301 Kingsbury Lane Prosper, TX 75078 $462,396 3,700 平方英尺. 10,890 平方英尺. $125
2018-07-27 独户式别墅 Traditional 720 Amistad Drive Prosper, TX 75078 $564,900 4,246 平方英尺. 20,909 平方英尺. $133
2018-07-27 独户式别墅 1651 Lonesome Dove Drive Prosper, TX 75078 $562,961 3,793 平方英尺. 14,375 平方英尺. $148
2018-07-27 独户式别墅 A-Frame 1701 Lonesome Dove Drive Prosper, TX 75078 $531,284 3,086 平方英尺. 14,375 平方英尺. $172
2018-07-26 独户式别墅 Traditional 16408 Dry Creek Boulevard Prosper, TX 75078 $295,000 2,495 平方英尺. 6,534 平方英尺. $118
2018-07-26 独户式别墅 Traditional 5721 Crestwood Drive Prosper, TX 75078 $274,000 2,348 平方英尺. 6,970 平方英尺. $117
2018-07-26 独户式别墅 Traditional 16317 Dry Creek Boulevard Prosper, TX 75078 $310,000 3,098 平方英尺. 5,663 平方英尺. $100
2018-07-25 独户式别墅 Traditional 821 Greenbriar Lane Prosper, TX 75078 $649,900 3,808 平方英尺. $171
2018-07-25 独户式别墅 Traditional 2250 Country Brook Lane Prosper, TX 75078 $649,990 3,625 平方英尺. 6,970 平方英尺. $179
2018-07-25 独户式别墅 Traditional 1671 Birdsong Lane Prosper, TX 75078 $560,815 3,593 平方英尺. 6,970 平方英尺. $156
2018-07-25 独户式别墅 Traditional 2017 Commons Way Prosper, TX 75078 $494,665 4,158 平方英尺. 7,841 平方英尺. $119
2018-07-25 独户式别墅 Traditional 2113 Sutton Park Prosper, TX 75078 $455,230 3,520 平方英尺. 6,098 平方英尺. $129
2018-07-25 独户式别墅 Traditional 2109 Sutton Park Prosper, TX 75078 $421,265 3,462 平方英尺. 6,098 平方英尺. $122
2018-07-24 独户式别墅 Traditional 1710 Dartmouth Circle Prosper, TX 75078 $690,000 3,593 平方英尺. 11,761 平方英尺. $192
2018-07-24 独户式别墅 Traditional 4121 Paddock Lane Prosper, TX 75078 $599,900 3,433 平方英尺. $175
2018-07-24 独户式别墅 Tudor 3711 Glacier Point Court Prosper, TX 75078 $850,000 4,995 平方英尺. 10,890 平方英尺. $170
2018-07-20 独户式别墅 Traditional 500 Willow Ridge Circle Prosper, TX 75078 $419,900 2,377 平方英尺. 16,988 平方英尺. $177
2018-07-19 独户式别墅 Traditional 441 Esperanza Drive Prosper, TX 75078 $669,990 4,334 平方英尺. 10,019 平方英尺. $155
2018-07-19 独户式别墅 Traditional 1921 Blue Forest Drive Prosper, TX 75078 $665,000 3,750 平方英尺. 57,499 平方英尺. $177
2018-07-19 独户式别墅 Traditional 1130 Norfolk Prosper, TX 75078 $439,900 3,450 平方英尺. 10,019 平方英尺. $128
2018-07-19 独户式别墅 Traditional 101 Collin Green Drive Prosper, TX 75078 $365,000 1,965 平方英尺. 50,094 平方英尺. $186
2018-07-18 独户式别墅 Traditional 1131 Belknap Way Prosper, TX 75078 $449,900 3,300 平方英尺. 8,276 平方英尺. $136
2018-07-18 独户式别墅 Traditional 1230 Cedar Springs Drive Prosper, TX 75078 $599,900 4,465 平方英尺. 14,375 平方英尺. $134
2018-07-17 独户式别墅 1316 Corona Court Prosper, TX 75078 $389,999 2,831 平方英尺. 7,841 平方英尺. $138
2018-07-16 独户式别墅 Traditional 1250 Amistad Drive Prosper, TX 75078 $384,990 3,034 平方英尺. 10,019 平方英尺. $127
2018-07-16 独户式别墅 Ranch 107 2nd Street Prosper, TX 75078 $299,999 1,248 平方英尺. 6,534 平方英尺. $240
2018-07-14 独户式别墅 911 Circle J Trail Prosper, TX 75078 $699,000 4,727 平方英尺. 14,810 平方英尺. $148
2018-07-12 独户式别墅 Traditional 16600 Stillhouse Hollow Court Prosper, TX 75078 $339,900 2,704 平方英尺. 5,663 平方英尺. $126
2018-07-12 独户式别墅 Traditional 4409 Rainwater Creek Prosper, TX 75078 $509,101 4,203 平方英尺. 10,890 平方英尺. $121
2018-07-12 独户式别墅 Traditional 16008 Brelsford Place Prosper, TX 75078 $310,405 2,064 平方英尺. 6,098 平方英尺. $150
2018-07-12 独户式别墅 Traditional 16020 Brelsford Place Prosper, TX 75078 $365,486 2,992 平方英尺. 6,098 平方英尺. $122
2018-07-08 独户式别墅 Traditional 750 Dover Drive Prosper, TX 75078 $439,997 2,617 平方英尺. 6,970 平方英尺. $168
2018-07-07 独户式别墅 Traditional 631 Table Rock Drive Prosper, TX 75078 $353,000 3,177 平方英尺. 11,326 平方英尺. $111
2018-07-07 独户式别墅 Traditional 2108 Sutton Park Avenue Prosper, TX 75078 $375,000 2,643 平方英尺. 6,534 平方英尺. $142
2018-07-07 独户式别墅 Traditional 630 Table Rock Drive Prosper, TX 75078 $398,000 3,739 平方英尺. 12,632 平方英尺. $106
2018-07-07 独户式别墅 850 Manchester Avenue Prosper, TX 75078 $509,352 3,260 平方英尺. 6,970 平方英尺. $156
2018-07-06 独户式别墅 Traditional 840 Del Carmen Drive Prosper, TX 75078 $625,000 4,919 平方英尺. 23,522 平方英尺. $127
2018-07-06 独户式别墅 Traditional 1060 Harvest Hill Drive Prosper, TX 75078 $525,000 4,192 平方英尺. 8,276 平方英尺. $125
2018-07-06 独户式别墅 Traditional 241 Fawn Mist Drive Prosper, TX 75078 $469,714 3,222 平方英尺. 10,019 平方英尺. $146
2018-07-06 独户式别墅 Traditional 301 Fawn Mist Drive Prosper, TX 75078 $439,990 2,833 平方英尺. 10,019 平方英尺. $155
2018-07-05 独户式别墅 Tudor 711 Hawk Wood Lane Prosper, TX 75078 $1,075,000 5,198 平方英尺. 16,117 平方英尺. $207
2018-07-03 独户式别墅 Traditional 800 Willowmist Drive Prosper, TX 75078 $428,000 4,096 平方英尺. 12,632 平方英尺. $104
2018-07-03 独户式别墅 Traditional 16521 Dry Creek Boulevard Prosper, TX 75078 $379,000 3,371 平方英尺. 6,098 平方英尺. $112
2018-07-03 独户式别墅 Tudor 2140 Elm Terrace Lane Prosper, TX 75078 $998,950 4,441 平方英尺. 12,632 平方英尺. $225
2018-07-02 独户式别墅 Traditional 16720 Lincoln Park Lane Prosper, TX 75078 $379,994 3,007 平方英尺. 6,970 平方英尺. $126
2018-07-01 独户式别墅 1650 Lonesome Dove Drive Prosper, TX 75078 $609,760 4,451 平方英尺. 14,375 平方英尺. $137
2018-06-30 独户式别墅 Tudor 710 Country Brook Lane Prosper, TX 75078 $649,000 3,568 平方英尺. 11,761 平方英尺. $182
2018-06-30 独户式别墅 Traditional 1591 Blue Forest Drive Prosper, TX 75078 $799,000 4,828 平方英尺. 43,560 平方英尺. $165
2018-06-29 独户式别墅 Traditional 1310 Millers Creek Drive Prosper, TX 75078 $439,900 3,810 平方英尺. 10,019 平方英尺. $115
2018-06-28 独户式别墅 Traditional 2141 Cedar Crest Ln Prosper, TX 75078 $879,990 4,577 平方英尺. 22,651 平方英尺. $192
2018-06-27 独户式别墅 Traditional 1750 Windy Hill Lane Prosper, TX 75078 $709,000 4,187 平方英尺. 14,810 平方英尺. $169
2018-06-27 独户式别墅 Traditional 16004 Brelsford Way Prosper, TX 75078 $376,471 3,000 平方英尺. 5,663 平方英尺. $125
2018-06-27 独户式别墅 Traditional 1508 Grapevine Ridge Prosper, TX 75078 $339,000 2,457 平方英尺. 6,098 平方英尺. $138
2018-06-27 独户式别墅 Contemporary/Modern 1141 Three Rivers Drive Prosper, TX 75078 $575,000 4,376 平方英尺. 20,909 平方英尺. $131
2018-06-25 独户式别墅 Traditional 2010 Fair Oaks Lane Prosper, TX 75078 $574,900 4,318 平方英尺. 43,560 平方英尺. $133
2018-06-21 独户式别墅 591 Amistad Drive Prosper, TX 75078 $565,000 3,738 平方英尺. 23,958 平方英尺. $151
2018-06-20 独户式别墅 Traditional 241 Lake Trail Lane Prosper, TX 75078 $494,990 3,674 平方英尺. 16,117 平方英尺. $135
2018-06-18 独户式别墅 2840 Clearwater Drive Prosper, TX 75078 $425,000 3,584 平方英尺. 7,841 平方英尺. $119
2018-06-17 独户式别墅 Traditional 1300 Winding Creek Road Prosper, TX 75078 $1,489,000 6,259 平方英尺. 166,399 平方英尺. $238
2018-06-16 独户式别墅 Traditional 132 Townlake Drive Prosper, TX 75078 $634,900 4,383 平方英尺. 10,454 平方英尺. $145
2018-06-15 独户式别墅 Contemporary/Modern; French 1600 Winding Creek Road Prosper, TX 75078 $1,995,000 7,897 平方英尺. 142,006 平方英尺. $253
2018-06-15 独户式别墅 Traditional 1440 Lakeside Drive Prosper, TX 75078 $899,900 5,188 平方英尺. 12,197 平方英尺. $173
2018-06-15 独户式别墅 Traditional 16401 Benbrook Boulevard Prosper, TX 75078 $428,600 3,223 平方英尺. 7,405 平方英尺. $133
2018-06-14 独户式别墅 761 Ascot Court Prosper, TX 75078 $500,000 3,972 平方英尺. 9,148 平方英尺. $126
2018-06-14 独户式别墅 Traditional 4110 Porosa Lane Prosper, TX 75078 $649,900 4,200 平方英尺. $155
2018-06-14 独户式别墅 Traditional 831 Hawk Wood Ln Prosper, TX 75078 $829,990 3,890 平方英尺. 16,988 平方英尺. $213
2018-06-14 独户式别墅 Traditional 801 Manchester Avenue Prosper, TX 75078 $479,990 3,391 平方英尺. 6,970 平方英尺. $142
2018-06-14 独户式别墅 4300 Wilson Creek Trail Prosper, TX 75078 $650,000 5,080 平方英尺. 11,761 平方英尺. $128
2018-06-14 独户式别墅 Traditional 761 Dover Drive Prosper, TX 75078 $449,990 3,404 平方英尺. 6,970 平方英尺. $132
2018-06-13 独户式别墅 Traditional 830 Manchester Avenue Prosper, TX 75078 $446,990 2,812 平方英尺. 7,841 平方英尺. $159
2018-06-13 独户式别墅 Traditional 2101 Commons Way Prosper, TX 75078 $436,455 3,323 平方英尺. 7,841 平方英尺. $131
2018-06-13 独户式别墅 Traditional 2201 Hubbard Park Lane Prosper, TX 75078 $449,760 3,359 平方英尺. 7,405 平方英尺. $134
2018-06-12 独户式别墅 Traditional 761 Drummond Drive Prosper, TX 75078 $572,935 3,697 平方英尺. 7,841 平方英尺. $155
2018-06-09 独户式别墅 Traditional 840 Manchester Avenue Prosper, TX 75078 $494,087 3,554 平方英尺. 6,970 平方英尺. $139
2018-06-09 独户式别墅 Traditional 1011 Cliff Creek Drive Prosper, TX 75078 $819,990 4,430 平方英尺. $185
2018-06-06 独户式别墅 Traditional 6604 Preston Country Lane Prosper, TX 75078 $2,100,000 6,070 平方英尺. 284,882 平方英尺. $346
2018-06-06 独户式别墅 180 Kingsbury Lane Prosper, TX 75078 $499,900 3,656 平方英尺. 10,890 平方英尺. $137
2018-06-06 独户式别墅 1210 Vista Run Drive Prosper, TX 75078 $574,800 3,219 平方英尺. 14,375 平方英尺. $179
2018-06-05 独户式别墅 Traditional 16429 Dry Creek Boulevard Prosper, TX 75078 $278,900 1,999 平方英尺. 7,405 平方英尺. $140
2018-06-05 独户式别墅 Traditional 1050 Crystal Falls Drive Prosper, TX 75078 $360,000 3,178 平方英尺. 7,405 平方英尺. $113
2018-06-04 独户式别墅 Traditional 1101 Belknap Way Prosper, TX 75078 $476,181 3,300 平方英尺. 8,276 平方英尺. $144
2018-06-03 独户式别墅 Traditional 4060 Teton Place Prosper, TX 75078 $775,000 4,569 平方英尺. 12,197 平方英尺. $170
2018-06-01 独户式别墅 Traditional 4140 Tranquility Lane Prosper, TX 75078 $1,225,000 5,057 平方英尺. 43,560 平方英尺. $242
2018-06-01 独户式别墅 Traditional 841 Nightwind Court Prosper, TX 75078 $679,990 4,028 平方英尺. 16,117 平方英尺. $169
2018-06-01 独户式别墅 Traditional 3530 Newport Drive Prosper, TX 75078 $692,990 4,632 平方英尺. $150
2018-05-31 独户式别墅 Traditional 620 Willow Ridge Circle Prosper, TX 75078 $489,900 3,887 平方英尺. 16,117 平方英尺. $126
2018-05-31 独户式别墅 Traditional 941 Sabine Drive Prosper, TX 75078 $458,000 2,813 平方英尺. 10,019 平方英尺. $163
2018-05-31 独户式别墅 Traditional 861 Sabine Drive Prosper, TX 75078 $468,000 3,636 平方英尺. 10,454 平方英尺. $129
2018-05-31 独户式别墅 Traditional 681 Sibyl Lane Prosper, TX 75078 $499,000 2,865 平方英尺. 12,632 平方英尺. $174
2018-05-30 独户式别墅 Traditional 16701 Lincoln Park Lane Prosper, TX 75078 $365,000 3,007 平方英尺. 6,098 平方英尺. $121
2018-05-29 独户式别墅 Traditional 810 Manchester Avenue Prosper, TX 75078 $514,413 3,676 平方英尺. 10,890 平方英尺. $140
2018-05-28 独户式别墅 Traditional 1541 Ramsbury Lane Prosper, TX 75078 $430,317 3,151 平方英尺. 10,890 平方英尺. $137
2018-05-24 独户式别墅 Traditional 840 Butchart Drive Prosper, TX 75078 $450,000 3,405 平方英尺. 9,583 平方英尺. $132
2018-05-24 独户式别墅 Traditional 240 Timber Ridge Road Prosper, TX 75078 $331,990 1,871 平方英尺. $177
2018-05-24 独户式别墅 Traditional 721 Buffalo Springs Drive Prosper, TX 75078 $442,500 3,472 平方英尺. 10,890 平方英尺. $127
2018-05-21 独户式别墅 Traditional 2781 Meadowbrook Boulevard Prosper, TX 75078 $557,900 3,003 平方英尺. $186
2018-05-20 独户式别墅 Ranch 720 Country Brook Lane Prosper, TX 75078 $590,000 3,398 平方英尺. 11,761 平方英尺. $174
2018-05-18 独户式别墅 Traditional 4440 Desert Willow Drive Prosper, TX 75078 $608,500 4,314 平方英尺. 10,890 平方英尺. $141
2018-05-18 独户式别墅 Traditional 810 Summerfield Prosper, TX 75078 $499,900 4,271 平方英尺. 10,019 平方英尺. $117
2018-05-17 独户式别墅 Traditional 1751 Windy Hill Lane Prosper, TX 75078 $619,900 4,417 平方英尺. 14,810 平方英尺. $140
2018-05-17 独户式别墅 Ranch 2740 Kingston Street Prosper, TX 75078 $499,885 3,150 平方英尺. 7,841 平方英尺. $159
2018-05-16 独户式别墅 Traditional 901 Greenbriar Prosper, TX 75078 $529,701 2,897 平方英尺. 10,890 平方英尺. $183
2018-05-16 独户式别墅 Traditional 400 Lake Trail Lane Prosper, TX 75078 $459,990 2,833 平方英尺. 10,019 平方英尺. $162
2018-05-16 独户式别墅 Traditional 600 Timber Ridge Road Prosper, TX 75078 $449,472 3,450 平方英尺. 10,019 平方英尺. $130
2018-05-15 独户式别墅 Contemporary/Modern 1930 Harvard Avenue Prosper, TX 75078 $599,697 3,349 平方英尺. 10,890 平方英尺. $179
2018-05-15 独户式别墅 Traditional 1940 Harvard Avenue Prosper, TX 75078 $612,546 3,118 平方英尺. 10,890 平方英尺. $196
2018-05-14 独户式别墅 Traditional 931 Cliff Creek Drive Prosper, TX 75078 $927,900 4,438 平方英尺. $209
2018-05-12 独户式别墅 Traditional 911 Cliff Creek Drive Prosper, TX 75078 $921,000 4,953 平方英尺. $186
2018-05-12 独户式别墅 Traditional 261 Tahoe Drive Prosper, TX 75078 $439,900 2,945 平方英尺. 12,197 平方英尺. $149
2018-05-11 独户式别墅 Traditional 751 Ivy Glen Court Prosper, TX 75078 $724,900 4,234 平方英尺. $171
2018-05-09 独户式别墅 Traditional 751 Drummond Drive Prosper, TX 75078 $549,100 3,401 平方英尺. 7,841 平方英尺. $161
2018-05-09 独户式别墅 811 Red Fox Drive Prosper, TX 75078 $319,990 2,571 平方英尺. 7,405 平方英尺. $124
2018-05-09 独户式别墅 Traditional 2013 Commons Way Prosper, TX 75078 $417,070 2,957 平方英尺. 8,712 平方英尺. $141
2018-05-09 独户式别墅 Traditional 2009 Hubbard Park Prosper, TX 75078 $423,000 3,279 平方英尺. 6,098 平方英尺. $129
2018-05-09 独户式别墅 Traditional 810 Gray Wolf Drive Prosper, TX 75078 $325,000 3,378 平方英尺. 6,970 平方英尺. $96
2018-05-07 独户式别墅 Traditional 930 Windrock Lane Prosper, TX 75078 $584,600 3,741 平方英尺. 10,019 平方英尺. $156
2018-05-07 独户式别墅 Traditional 630 Ashbury Lane Prosper, TX 75078 $440,000 2,519 平方英尺. 7,405 平方英尺. $175
2018-05-07 独户式别墅 Traditional 1580 Star Creek Drive Prosper, TX 75078 $424,000 2,100 平方英尺. 9,583 平方英尺. $202
2018-05-06 独户式别墅 Traditional 4220 Paddock Lane Prosper, TX 75078 $599,900 3,998 平方英尺. $150
2018-05-06 独户式别墅 Traditional 180 Godstone Lane Prosper, TX 75078 $474,447 4,281 平方英尺. 10,890 平方英尺. $111
2018-05-06 独户式别墅 181 Godstone Lane Prosper, TX 75078 $452,511 3,493 平方英尺. 10,890 平方英尺. $130
2018-05-06 独户式别墅 Traditional 160 Godstone Lane Prosper, TX 75078 $482,656 4,308 平方英尺. 10,890 平方英尺. $112
2018-05-06 独户式别墅 Traditional 1031 Cliff Creek Drive Prosper, TX 75078 $825,990 4,651 平方英尺. $178
2018-05-06 独户式别墅 Traditional 140 Lamond Court Prosper, TX 75078 $482,000 3,860 平方英尺. $125
2018-05-06 独户式别墅 Traditional 741 Hawthorn Drive Prosper, TX 75078 $475,000 3,391 平方英尺. 13,068 平方英尺. $140
2018-05-06 独户式别墅 Mediterranean; Traditional 4221 Glacier Point Court Prosper, TX 75078 $1,599,000 6,176 平方英尺. 24,394 平方英尺. $259
2018-05-06 独户式别墅 Traditional 3000 Sunny Hill Lane Prosper, TX 75078 $639,000 4,335 平方英尺. 12,197 平方英尺. $147
2018-05-06 独户式别墅 Traditional 440 Darian Drive Prosper, TX 75078 $374,990 2,540 平方英尺. 10,890 平方英尺. $148
2018-04-25 独户式别墅 Traditional 730 Ivy Glen Court Prosper, TX 75078 $709,900 4,074 平方英尺. $174
2018-04-24 独户式别墅 Traditional 930 Mountain Laurel Drive Prosper, TX 75078 $525,000 3,221 平方英尺. 6,534 平方英尺. $163
2018-04-22 独户式别墅 Traditional 4270 Mesa Drive Prosper, TX 75078 $539,000 3,649 平方英尺. 10,019 平方英尺. $148
2018-04-21 独户式别墅 Traditional 1730 Star Trace Parkway Prosper, TX 75078 $594,990 3,618 平方英尺. 13,068 平方英尺. $164
2018-04-20 独户式别墅 Traditional 730 Red Fox Drive Prosper, TX 75078 $349,990 2,552 平方英尺. 7,405 平方英尺. $137
2018-04-19 独户式别墅 Traditional 1170 Olympia Lane Prosper, TX 75078 $515,285 3,914 平方英尺. $132
2018-04-19 独户式别墅 Traditional 1160 Olympia Lane Prosper, TX 75078 $483,470 3,929 平方英尺. $123
2018-04-18 独户式别墅 French 1241 Clipston Drive Prosper, TX 75078 $699,000 4,656 平方英尺. 13,068 平方英尺. $150
2018-04-18 独户式别墅 French 1931 Vanderbilt Drive Prosper, TX 75078 $685,000 4,328 平方英尺. 11,326 平方英尺. $158
2018-04-17 独户式别墅 Traditional 3940 White Clover Prosper, TX 75078 $524,625 3,487 平方英尺. 8,712 平方英尺. $150
2018-04-17 独户式别墅 Mediterranean 721 Star Meadow Prosper, TX 75078 $799,995 4,484 平方英尺. 11,326 平方英尺. $178
2018-04-17 独户式别墅 Spanish 811 Ivy Glen Court Prosper, TX 75078 $795,995 4,474 平方英尺. 10,454 平方英尺. $178
2018-04-17 独户式别墅 Tudor 811 Country Brook Lane Prosper, TX 75078 $700,000 4,130 平方英尺. 10,890 平方英尺. $169
2018-04-17 独户式别墅 Traditional; Victorian 731 Star Meadow Drive Prosper, TX 75078 $785,995 4,810 平方英尺. 10,890 平方英尺. $163
2018-04-17 独户式别墅 Traditional 730 Star Meadow Drive Prosper, TX 75078 $789,995 4,741 平方英尺. 11,761 平方英尺. $167
2018-04-14 独户式别墅 Tudor 2220 Country Brook Lane Prosper, TX 75078 $750,000 4,065 平方英尺. 13,939 平方英尺. $184
2018-04-12 独户式别墅 Craftsman; Ranch; Traditional 1701 Chisholm Trail Prosper, TX 75078 $478,990 2,761 平方英尺. 14,375 平方英尺. $173
2018-04-12 独户式别墅 Traditional 830 Star Meadow Drive Prosper, TX 75078 $724,000 4,208 平方英尺. $172
2018-04-12 独户式别墅 Contemporary/Modern 4040 Brazoria Drive Prosper, TX 75078 $638,031 3,844 平方英尺. 436 平方英尺. $166
2018-04-11 独户式别墅 Traditional 400 Darian Drive Prosper, TX 75078 $377,000 2,573 平方英尺. 10,019 平方英尺. $147
2018-04-11 独户式别墅 Contemporary/Modern 4100 Woodbine Lane Prosper, TX 75078 $672,081 4,214 平方英尺. 436 平方英尺. $159
2018-04-10 独户式别墅 Traditional 831 Nightwind Court Prosper, TX 75078 $398,990 2,627 平方英尺. 10,890 平方英尺. $152
2018-04-06 独户式别墅 Traditional 2751 Kingston Street Prosper, TX 75078 $499,900 2,965 平方英尺. $169
2018-04-06 独户式别墅 Traditional 800 Essex Drive Prosper, TX 75078 $499,900 4,059 平方英尺. 14,375 平方英尺. $123
2018-04-05 独户式别墅 Traditional 971 Deer Run Lane Prosper, TX 75078 $679,900 4,433 平方英尺. 15,246 平方英尺. $153
2018-04-04 独户式别墅 Traditional 2308 Commons Way Prosper, TX 75078 $434,965 2,876 平方英尺. 7,405 平方英尺. $151
2018-04-04 独户式别墅 Contemporary/Modern 1720 Star Trace Parkway Prosper, TX 75078 $698,724 4,346 平方英尺. 12,632 平方英尺. $161
2018-03-30 独户式别墅 Tudor 3391 Briarcliff Drive Prosper, TX 75078 $775,000 4,258 平方英尺. 10,890 平方英尺. $182
2018-03-30 独户式别墅 Traditional 260 Wilson Drive Prosper, TX 75078 $419,900 3,269 平方英尺. 10,890 平方英尺. $128
2018-03-29 独户式别墅 3470 Newport Drive Prosper, TX 75078 $700,000 4,314 平方英尺. 10,890 平方英尺. $162
2018-03-28 独户式别墅 880 Saint Peter Lane Prosper, TX 75078 $524,000 3,145 平方英尺. 14,375 平方英尺. $167
2018-03-23 独户式别墅 Traditional 5410 Mustang Lane Prosper, TX 75078 $303,476 2,192 平方英尺. 6,970 平方英尺. $138
2018-03-21 独户式别墅 Traditional 2791 Langley Way Prosper, TX 75078 $524,900 3,278 平方英尺. $160
2018-03-20 独户式别墅 1411 Rainier Drive Prosper, TX 75078 $795,000 4,874 平方英尺. 33,977 平方英尺. $163
2018-03-19 独户式别墅 Traditional 800 Manchester Avenue Prosper, TX 75078 $489,522 3,921 平方英尺. 10,890 平方英尺. $125
2018-03-17 独户式别墅 Traditional 3701 Glacier Point Court Prosper, TX 75078 $799,990 4,346 平方英尺. $184
2018-03-15 独户式别墅 Traditional 1721 Cypress Lake Lane Prosper, TX 75078 $592,144 4,165 平方英尺. 14,375 平方英尺. $142
2018-03-14 独户式别墅 Traditional 1940 Thackery Lane Prosper, TX 75078 $523,000 4,276 平方英尺. 14,375 平方英尺. $122
2018-03-14 独户式别墅 Traditional 1730 Mountain Creek Lane Prosper, TX 75078 $555,000 4,298 平方英尺. 14,375 平方英尺. $129
2018-03-14 独户式别墅 Traditional 811 Star Meadow Drive Prosper, TX 75078 $599,900 3,273 平方英尺. $183
2018-03-14 独户式别墅 Mediterranean 400 Whitley Place Drive Prosper, TX 75078 $1,150,000 5,400 平方英尺. 32,234 平方英尺. $213
2018-03-14 独户式别墅 Traditional 751 Dover Drive Prosper, TX 75078 $446,990 2,760 平方英尺. 6,970 平方英尺. $162
2018-03-13 独户式别墅 Traditional 2761 Meadowbrook Boulevard Prosper, TX 75078 $584,900 3,700 平方英尺. $158
2018-03-12 独户式别墅 Traditional 2711 Langley Way Prosper, TX 75078 $574,900 3,916 平方英尺. $147
2018-03-06 独户式别墅 Traditional 840 Star Meadow Drive Prosper, TX 75078 $699,900 4,153 平方英尺. $169
2018-03-05 独户式别墅 Traditional 831 Shackleford Lane Prosper, TX 75078 $849,990 4,846 平方英尺. 10,890 平方英尺. $175
2018-03-05 独户式别墅 Traditional 1721 Quail Creek Lane Prosper, TX 75078 $547,500 3,583 平方英尺. 11,326 平方英尺. $153
2018-03-04 独户式别墅 Traditional 3721 Glacier Point Court Prosper, TX 75078 $799,990 4,703 平方英尺. $170
2018-03-02 独户式别墅 Traditional 831 Ivy Glen Court Prosper, TX 75078 $749,900 4,842 平方英尺. $155
2018-02-27 独户式别墅 Traditional 810 Ivy Glen Court Prosper, TX 75078 $724,900 3,904 平方英尺. $186
2018-02-27 独户式别墅 830 Shackleford Lane Prosper, TX 75078 $799,990 4,477 平方英尺. 11,326 平方英尺. $179
2018-02-27 独户式别墅 Traditional 830 Wright Lane Prosper, TX 75078 $829,990 4,657 平方英尺. 10,890 平方英尺. $178
2018-02-27 独户式别墅 Traditional 1661 Oakcrest Drive Prosper, TX 75078 $585,925 3,965 平方英尺. 8,276 平方英尺. $148
2018-02-27 独户式别墅 Traditional 1221 Castle Drive Prosper, TX 75078 $458,543 3,929 平方英尺. $117
2018-02-27 独户式别墅 1660 Cascades Court Prosper, TX 75078 $657,990 4,308 平方英尺. 21,780 平方英尺. $153
2018-02-27 独户式别墅 Traditional 2860 Clarendon Court Prosper, TX 75078 $524,900 3,450 平方英尺. $152
2018-02-27 独户式别墅 Traditional 2790 Kingston Street Prosper, TX 75078 $549,900 4,025 平方英尺. $137
2018-02-27 独户式别墅 Traditional 801 Star Meadow Drive Prosper, TX 75078 $652,900 4,492 平方英尺. $145
2018-02-27 独户式别墅 Traditional 4140 Paddock Lane Prosper, TX 75078 $599,900 4,034 平方英尺. $149
2018-02-27 独户式别墅 Traditional 3721 Spicewood Drive Prosper, TX 75078 $649,000 4,603 平方英尺. 10,890 平方英尺. $141
2018-02-27 独户式别墅 Traditional 831 Star Meadow Drive Prosper, TX 75078 $649,900 3,522 平方英尺. $185
2018-02-27 独户式别墅 Traditional 1220 Rainier Drive Prosper, TX 75078 $446,516 3,744 平方英尺. $119
2018-02-26 独户式别墅 Traditional 1210 Rainier Drive Prosper, TX 75078 $437,210 3,641 平方英尺. $120
2018-02-26 独户式别墅 Traditional 1830 Princeton Lane Prosper, TX 75078 $725,000 4,060 平方英尺. 9,583 平方英尺. $179
2018-01-18 独户式别墅 Traditional 4211 Paddock Lane Prosper, TX 75078 $549,900 2,969 平方英尺. $185
2018-01-17 独户式别墅 1821 Shavano Way Prosper, TX 75078 $544,900 3,233 平方英尺. 14,375 平方英尺. $169
2018-01-12 独户式别墅 Traditional 880 Jessica Court Prosper, TX 75078 $589,000 4,284 平方英尺. 12,197 平方英尺. $137
2018-01-12 独户式别墅 Traditional 641 Logans Way Drive Prosper, TX 75078 $499,000 3,838 平方英尺. 12,632 平方英尺. $130
2018-01-09 独户式别墅 Traditional 4261 San Juan Street Prosper, TX 75078 $1,250,000 5,509 平方英尺. 58,370 平方英尺. $227
2018-01-09 独户式别墅 1211 Castle Drive Prosper, TX 75078 $458,543 4,246 平方英尺. 13,504 平方英尺. $108
2018-01-09 独户式别墅 1171 Castle Drive Prosper, TX 75078 $509,174 4,159 平方英尺. 16,553 平方英尺. $122
2018-01-08 独户式别墅 Traditional 1641 St Peter Lane Prosper, TX 75078 $1,250,000 5,517 平方英尺. 27,007 平方英尺. $227
2018-01-08 独户式别墅 Traditional 1520 St Peter Lane Prosper, TX 75078 $1,235,000 4,677 平方英尺. 15,246 平方英尺. $264
2018-01-08 独户式别墅 Traditional 1500 St Peter Lane Prosper, TX 75078 $999,000 4,023 平方英尺. 15,246 平方英尺. $248
2017-12-24 独户式别墅 Traditional 1831 Newpark Way Prosper, TX 75078 $528,000 3,590 平方英尺. 7,405 平方英尺. $147
2017-12-24 独户式别墅 Traditional 1800 Shavano Way Prosper, TX 75078 $548,000 3,968 平方英尺. 12,632 平方英尺. $138
2017-12-24 独户式别墅 Traditional 1810 Shavano Way Prosper, TX 75078 $538,000 3,586 平方英尺. 12,632 平方英尺. $150
2017-12-24 独户式别墅 Traditional 660 Trail Drive Prosper, TX 75078 $489,000 2,772 平方英尺. 13,939 平方英尺. $176
2017-12-08 独户式别墅 Traditional 1010 Waterview Drive Prosper, TX 75078 $518,000 4,444 平方英尺. 10,454 平方英尺. $117
2017-11-06 独户式别墅 Traditional 2491 Canary Grass Lane Prosper, TX 75078 $393,483 2,712 平方英尺. 6,534 平方英尺. $145
2017-10-25 独户式别墅 Traditional 910 Twin Buttes Prosper, TX 75078 $439,900 4,295 平方英尺. 10,890 平方英尺. $102
2017-10-14 独户式别墅 Traditional 1681 Oakcrest Prosper, TX 75078 $486,100 3,448 平方英尺. 7,841 平方英尺. $141
2017-10-12 独户式别墅 1360 Waterton Drive Prosper, TX 75078 $637,990 4,308 平方英尺. 14,375 平方英尺. $148
2017-10-06 独户式别墅 Traditional 5430 Mustang Drive Prosper, TX 75078 $319,990 2,803 平方英尺. 6,970 平方英尺. $114
2017-09-21 独户式别墅 Traditional 2500 Bottlebrush Drive Prosper, TX 75078 $399,990 2,762 平方英尺. 7,405 平方英尺. $145
2017-09-07 独户式别墅 1321 Waterton Drive Prosper, TX 75078 $637,990 4,308 平方英尺. 14,375 平方英尺. $148
2017-06-19 独户式别墅 Loft; Traditional 1950 Thackery Lane Prosper, TX 75078 $535,000 4,517 平方英尺. 14,375 平方英尺. $118